Wilson Gaeta — 8PTS — position and weather

sailwx.info

Track history (hours):
 
Tides and Currents Weather Stations Pressure Air Temp Water Temp Dewpoint Dewpoint Depression Visibility Wind Speed Wind Dir Waves Ship Positions

Wilson Gaeta

Last reported at 2015-May-29 14:33 UTC. Time now 2015-May-30 22:43 UTC.
Position N 59°15' E 004°41'.

Length 88 m; draft 3.7 m.

Type: Cargo ship. MMSI: 314237000.

Date/timePositionNaut miles runAvg speedWind from/ knotsBaromVisibWave heightAir tempDewpointWater temp
2015-May-29 14:33N 59°15' E 004°41'9 9.2
2015-May-29 13:33N 59°07' E 004°50'9 8.9
2015-May-29 12:33N 58°60' E 004°59'9 8.9
2015-May-29 11:33N 58°52' E 005°08'9 8.9
2015-May-29 10:31N 58°44' E 005°17'18 8.7
2015-May-29 08:25N 58°29' E 005°35'9 9.0
2015-May-29 07:27N 58°23' E 005°47'8 8.4
2015-May-29 06:32N 58°17' E 005°58'  
2015-May-25 01:24N 53°59' E 004°56'8 8.3
2015-May-25 00:29N 53°51' E 004°53'56 9.3
2015-May-24 18:28N 52°59' E 004°20'8 8.9
2015-May-24 17:33N 52°52' E 004°15'10 8.2
2015-May-24 16:19N 52°43' E 004°05'6 8.0
2015-May-24 15:32N 52°39' E 003°58'8 7.8
2015-May-24 14:33N 52°33' E 003°49'8 7.5
2015-May-24 13:33N 52°28' E 003°40'7 7.4
2015-May-24 12:33N 52°23' E 003°32'11 7.6
2015-May-24 11:08N 52°15' E 003°19'7 8.2
2015-May-24 10:15N 52°10' E 003°11'6 8.7
2015-May-24 09:32N 52°05' E 003°04'10 9.0
2015-May-24 08:23N 51°57' E 002°53'8 9.5
2015-May-24 07:33N 51°51' E 002°45'10 9.8
2015-May-24 06:33N 51°44' E 002°35'1010.0
2015-May-24 05:33N 51°36' E 002°24'1010.1
2015-May-24 04:33N 51°28' E 002°15'10 9.9
2015-May-24 03:33N 51°19' E 002°08'10 9.6
2015-May-24 02:33N 51°12' E 001°58'9 9.4
2015-May-24 01:33N 51°06' E 001°46'9 8.5
2015-May-24 00:33N 50°60' E 001°37'7 7.3
2015-May-23 23:33N 50°54' E 001°29'6 6.4
2015-May-23 22:33N 50°49' E 001°25'7 6.8
2015-May-23 21:33N 50°42' E 001°22'7 6.8
2015-May-23 20:33N 50°37' E 001°14'259 6.5
2015-May-22 04:22N 50°38' W 005°35'7 8.0
2015-May-22 03:32N 50°43' W 005°28'96 3.3
2015-May-20 22:10N 51°24' W 003°09'710.7
2015-May-20 21:34N 51°26' W 002°60'9 8.7
2015-May-20 20:34N 51°30' W 002°47'3 3.1
2015-May-20 19:31N 51°31' W 002°42'0 0.0
2015-May-20 18:31N 51°31' W 002°42'0 0.0
2015-May-20 17:31N 51°31' W 002°42'0 0.0
2015-May-20 16:31N 51°31' W 002°42'0 0.0
2015-May-20 15:31N 51°31' W 002°42'0 0.0
2015-May-20 14:31N 51°31' W 002°42'0 0.0
2015-May-20 13:31N 51°31' W 002°42'0 0.0
2015-May-20 12:31N 51°31' W 002°42'0 0.0
2015-May-20 11:31N 51°31' W 002°42'0 0.0
2015-May-20 10:31N 51°31' W 002°42'0 0.0
2015-May-20 09:31N 51°31' W 002°42'0 0.0
2015-May-20 08:31N 51°31' W 002°42'0 0.0
2015-May-20 07:31N 51°31' W 002°42'0 0.0
2015-May-20 06:31N 51°31' W 002°42'0 0.0
2015-May-20 05:31N 51°31' W 002°42'0 0.0
2015-May-20 04:31N 51°31' W 002°42'0 0.0
2015-May-20 03:31N 51°31' W 002°42'0 0.0
2015-May-20 02:31N 51°31' W 002°42'0 0.0
2015-May-20 01:31N 51°31' W 002°42'0 0.0
2015-May-20 00:31N 51°31' W 002°42'0 0.0
2015-May-19 23:31N 51°31' W 002°42'0 0.0
2015-May-19 22:31N 51°31' W 002°42'0 0.0
2015-May-19 21:31N 51°31' W 002°42'0 0.0
2015-May-19 20:31N 51°31' W 002°42'0 0.0
2015-May-19 19:31N 51°31' W 002°42'0 0.0
2015-May-19 18:31N 51°31' W 002°42'0 0.0
2015-May-19 17:31N 51°31' W 002°42'0 0.0
2015-May-19 16:31N 51°31' W 002°42'0 0.0
2015-May-19 15:31N 51°31' W 002°42'  
Track history (hours):
 
Tides and Currents Weather Stations Pressure Air Temp Water Temp Dewpoint Dewpoint Depression Visibility Wind Speed Wind Dir Waves Ship Positions

Wilson Gaeta

Last reported at 2015-May-29 14:33 UTC. Time now 2015-May-30 22:43 UTC.
Position N 59°15' E 004°41'.

Length 88 m; draft 3.7 m.

Type: Cargo ship. MMSI: 314237000.

Date/timePositionNaut miles runAvg speedWind from/ knotsBaromVisibWave heightAir tempDewpointWater temp
2015-May-29 14:33N 59°15' E 004°41'9 9.2
2015-May-29 13:33N 59°07' E 004°50'9 8.9
2015-May-29 12:33N 58°60' E 004°59'9 8.9
2015-May-29 11:33N 58°52' E 005°08'9 8.9
2015-May-29 10:31N 58°44' E 005°17'18 8.7
2015-May-29 08:25N 58°29' E 005°35'9 9.0
2015-May-29 07:27N 58°23' E 005°47'8 8.4
2015-May-29 06:32N 58°17' E 005°58'  
2015-May-25 01:24N 53°59' E 004°56'8 8.3
2015-May-25 00:29N 53°51' E 004°53'56 9.3
2015-May-24 18:28N 52°59' E 004°20'8 8.9
2015-May-24 17:33N 52°52' E 004°15'10 8.2
2015-May-24 16:19N 52°43' E 004°05'6 8.0
2015-May-24 15:32N 52°39' E 003°58'8 7.8
2015-May-24 14:33N 52°33' E 003°49'8 7.5
2015-May-24 13:33N 52°28' E 003°40'7 7.4
2015-May-24 12:33N 52°23' E 003°32'11 7.6
2015-May-24 11:08N 52°15' E 003°19'7 8.2
2015-May-24 10:15N 52°10' E 003°11'6 8.7
2015-May-24 09:32N 52°05' E 003°04'10 9.0
2015-May-24 08:23N 51°57' E 002°53'8 9.5
2015-May-24 07:33N 51°51' E 002°45'10 9.8
2015-May-24 06:33N 51°44' E 002°35'1010.0
2015-May-24 05:33N 51°36' E 002°24'1010.1
2015-May-24 04:33N 51°28' E 002°15'10 9.9
2015-May-24 03:33N 51°19' E 002°08'10 9.6
2015-May-24 02:33N 51°12' E 001°58'9 9.4
2015-May-24 01:33N 51°06' E 001°46'9 8.5
2015-May-24 00:33N 50°60' E 001°37'7 7.3
2015-May-23 23:33N 50°54' E 001°29'6 6.4
2015-May-23 22:33N 50°49' E 001°25'7 6.8
2015-May-23 21:33N 50°42' E 001°22'7 6.8
2015-May-23 20:33N 50°37' E 001°14'259 6.5
2015-May-22 04:22N 50°38' W 005°35'7 8.0
2015-May-22 03:32N 50°43' W 005°28'96 3.3
2015-May-20 22:10N 51°24' W 003°09'710.7
2015-May-20 21:34N 51°26' W 002°60'9 8.7
2015-May-20 20:34N 51°30' W 002°47'3 3.1
2015-May-20 19:31N 51°31' W 002°42'0 0.0
2015-May-20 18:31N 51°31' W 002°42'0 0.0
2015-May-20 17:31N 51°31' W 002°42'0 0.0
2015-May-20 16:31N 51°31' W 002°42'0 0.0
2015-May-20 15:31N 51°31' W 002°42'0 0.0
2015-May-20 14:31N 51°31' W 002°42'0 0.0
2015-May-20 13:31N 51°31' W 002°42'0 0.0
2015-May-20 12:31N 51°31' W 002°42'0 0.0
2015-May-20 11:31N 51°31' W 002°42'0 0.0
2015-May-20 10:31N 51°31' W 002°42'0 0.0
2015-May-20 09:31N 51°31' W 002°42'0 0.0
2015-May-20 08:31N 51°31' W 002°42'0 0.0
2015-May-20 07:31N 51°31' W 002°42'0 0.0
2015-May-20 06:31N 51°31' W 002°42'0 0.0
2015-May-20 05:31N 51°31' W 002°42'0 0.0
2015-May-20 04:31N 51°31' W 002°42'0 0.0
2015-May-20 03:31N 51°31' W 002°42'0 0.0
2015-May-20 02:31N 51°31' W 002°42'0 0.0
2015-May-20 01:31N 51°31' W 002°42'0 0.0
2015-May-20 00:31N 51°31' W 002°42'0 0.0
2015-May-19 23:31N 51°31' W 002°42'0 0.0
2015-May-19 22:31N 51°31' W 002°42'0 0.0
2015-May-19 21:31N 51°31' W 002°42'0 0.0
2015-May-19 20:31N 51°31' W 002°42'0 0.0
2015-May-19 19:31N 51°31' W 002°42'0 0.0
2015-May-19 18:31N 51°31' W 002°42'0 0.0
2015-May-19 17:31N 51°31' W 002°42'0 0.0
2015-May-19 16:31N 51°31' W 002°42'0 0.0
2015-May-19 15:31N 51°31' W 002°42'  

Dump ship's entire track history